sensor_id;sensor_type;location;lat;lon;timestamp;P1;durP1;ratioP1;P2;durP2;ratioP2
66603;SDS011;53460;39.612;8.822;2023-11-21T00:00:13;2.75;;;1.40;;
66603;SDS011;53460;39.612;8.822;2023-11-21T00:02:40;2.53;;;1.30;;
66603;SDS011;53460;39.612;8.822;2023-11-21T00:05:07;2.20;;;1.25;;
66603;SDS011;53460;39.612;8.822;2023-11-21T00:07:36;2.78;;;1.27;;
66603;SDS011;53460;39.612;8.822;2023-11-21T00:10:03;2.17;;;1.35;;
66603;SDS011;53460;39.612;8.822;2023-11-21T00:12:30;1.60;;;1.30;;
66603;SDS011;53460;39.612;8.822;2023-11-21T00:14:56;4.13;;;1.23;;
66603;SDS011;53460;39.612;8.822;2023-11-21T00:17:23;3.00;;;1.35;;
66603;SDS011;53460;39.612;8.822;2023-11-21T00:19:49;3.08;;;1.35;;
66603;SDS011;53460;39.612;8.822;2023-11-21T00:22:17;2.47;;;1.50;;
66603;SDS011;53460;39.612;8.822;2023-11-21T00:24:43;1.50;;;1.30;;
66603;SDS011;53460;39.612;8.822;2023-11-21T00:27:09;3.83;;;1.33;;
66603;SDS011;53460;39.612;8.822;2023-11-21T00:29:35;2.88;;;1.20;;
66603;SDS011;53460;39.612;8.822;2023-11-21T00:32:01;2.70;;;1.00;;
66603;SDS011;53460;39.612;8.822;2023-11-21T00:34:27;1.83;;;1.25;;
66603;SDS011;53460;39.612;8.822;2023-11-21T00:36:53;3.65;;;1.30;;
66603;SDS011;53460;39.612;8.822;2023-11-21T00:39:19;2.80;;;1.30;;
66603;SDS011;53460;39.612;8.822;2023-11-21T00:41:45;2.03;;;1.20;;
66603;SDS011;53460;39.612;8.822;2023-11-21T00:44:11;4.22;;;1.20;;
66603;SDS011;53460;39.612;8.822;2023-11-21T00:46:36;2.20;;;0.95;;
66603;SDS011;53460;39.612;8.822;2023-11-21T00:49:02;1.77;;;1.08;;
66603;SDS011;53460;39.612;8.822;2023-11-21T00:51:30;4.78;;;1.60;;
66603;SDS011;53460;39.612;8.822;2023-11-21T00:53:56;1.75;;;1.02;;
66603;SDS011;53460;39.612;8.822;2023-11-21T00:56:23;1.83;;;1.20;;
66603;SDS011;53460;39.612;8.822;2023-11-21T00:58:49;2.45;;;1.10;;
66603;SDS011;53460;39.612;8.822;2023-11-21T01:01:17;2.75;;;1.25;;
66603;SDS011;53460;39.612;8.822;2023-11-21T01:03:45;3.97;;;1.10;;
66603;SDS011;53460;39.612;8.822;2023-11-21T01:06:12;2.38;;;1.45;;
66603;SDS011;53460;39.612;8.822;2023-11-21T01:08:37;4.25;;;1.23;;
66603;SDS011;53460;39.612;8.822;2023-11-21T01:11:03;3.00;;;1.73;;
66603;SDS011;53460;39.612;8.822;2023-11-21T01:13:30;3.78;;;1.75;;
66603;SDS011;53460;39.612;8.822;2023-11-21T01:15:55;4.53;;;1.48;;
66603;SDS011;53460;39.612;8.822;2023-11-21T01:18:21;1.77;;;1.35;;
66603;SDS011;53460;39.612;8.822;2023-11-21T01:20:50;2.13;;;1.45;;
66603;SDS011;53460;39.612;8.822;2023-11-21T01:23:18;5.55;;;2.00;;
66603;SDS011;53460;39.612;8.822;2023-11-21T01:25:43;7.75;;;2.22;;
66603;SDS011;53460;39.612;8.822;2023-11-21T01:28:09;7.60;;;2.17;;
66603;SDS011;53460;39.612;8.822;2023-11-21T01:30:34;7.03;;;2.90;;
66603;SDS011;53460;39.612;8.822;2023-11-21T01:33:00;6.57;;;2.20;;
66603;SDS011;53460;39.612;8.822;2023-11-21T01:35:26;2.60;;;1.50;;
66603;SDS011;53460;39.612;8.822;2023-11-21T01:37:52;4.78;;;1.48;;
66603;SDS011;53460;39.612;8.822;2023-11-21T01:40:17;2.58;;;1.35;;
66603;SDS011;53460;39.612;8.822;2023-11-21T01:42:44;2.30;;;1.30;;
66603;SDS011;53460;39.612;8.822;2023-11-21T01:45:10;2.50;;;1.10;;
66603;SDS011;53460;39.612;8.822;2023-11-21T01:47:37;2.17;;;1.30;;
66603;SDS011;53460;39.612;8.822;2023-11-21T01:50:06;3.38;;;1.88;;
66603;SDS011;53460;39.612;8.822;2023-11-21T01:52:38;2.92;;;1.10;;
66603;SDS011;53460;39.612;8.822;2023-11-21T01:55:05;4.20;;;1.52;;
66603;SDS011;53460;39.612;8.822;2023-11-21T01:57:33;2.05;;;1.40;;
66603;SDS011;53460;39.612;8.822;2023-11-21T02:00:00;1.85;;;1.27;;
66603;SDS011;53460;39.612;8.822;2023-11-21T02:02:48;2.53;;;1.30;;
66603;SDS011;53460;39.612;8.822;2023-11-21T02:05:18;3.30;;;1.30;;
66603;SDS011;53460;39.612;8.822;2023-11-21T02:07:44;2.88;;;1.73;;
66603;SDS011;53460;39.612;8.822;2023-11-21T02:10:13;2.33;;;1.20;;
66603;SDS011;53460;39.612;8.822;2023-11-21T02:12:43;3.15;;;1.38;;
66603;SDS011;53460;39.612;8.822;2023-11-21T02:15:12;2.45;;;1.35;;
66603;SDS011;53460;39.612;8.822;2023-11-21T02:17:51;1.42;;;1.27;;
66603;SDS011;53460;39.612;8.822;2023-11-21T02:20:19;6.68;;;1.45;;
66603;SDS011;53460;39.612;8.822;2023-11-21T02:22:53;1.35;;;1.23;;
66603;SDS011;53460;39.612;8.822;2023-11-21T02:25:26;2.33;;;1.33;;
66603;SDS011;53460;39.612;8.822;2023-11-21T02:27:56;3.72;;;1.80;;
66603;SDS011;53460;39.612;8.822;2023-11-21T02:30:23;2.35;;;1.40;;
66603;SDS011;53460;39.612;8.822;2023-11-21T02:32:57;2.50;;;1.10;;
66603;SDS011;53460;39.612;8.822;2023-11-21T02:35:24;1.98;;;1.38;;
66603;SDS011;53460;39.612;8.822;2023-11-21T02:37:51;1.33;;;1.23;;
66603;SDS011;53460;39.612;8.822;2023-11-21T02:40:17;1.75;;;1.35;;
66603;SDS011;53460;39.612;8.822;2023-11-21T02:42:43;1.90;;;1.33;;
66603;SDS011;53460;39.612;8.822;2023-11-21T02:45:09;4.43;;;1.67;;
66603;SDS011;53460;39.612;8.822;2023-11-21T02:47:38;3.38;;;1.60;;
66603;SDS011;53460;39.612;8.822;2023-11-21T02:50:04;6.78;;;3.78;;
66603;SDS011;53460;39.612;8.822;2023-11-21T02:52:33;9.18;;;4.35;;
66603;SDS011;53460;39.612;8.822;2023-11-21T02:54:59;9.75;;;4.72;;
66603;SDS011;53460;39.612;8.822;2023-11-21T02:57:24;5.60;;;2.65;;
66603;SDS011;53460;39.612;8.822;2023-11-21T02:59:50;5.05;;;2.47;;
66603;SDS011;53460;39.612;8.822;2023-11-21T03:02:16;2.60;;;1.90;;
66603;SDS011;53460;39.612;8.822;2023-11-21T03:04:41;4.75;;;1.90;;
66603;SDS011;53460;39.612;8.822;2023-11-21T03:07:08;3.58;;;1.80;;
66603;SDS011;53460;39.612;8.822;2023-11-21T03:09:35;6.28;;;2.20;;
66603;SDS011;53460;39.612;8.822;2023-11-21T03:12:01;6.55;;;2.38;;
66603;SDS011;53460;39.612;8.822;2023-11-21T03:14:27;3.80;;;2.10;;
66603;SDS011;53460;39.612;8.822;2023-11-21T03:16:52;4.55;;;2.00;;
66603;SDS011;53460;39.612;8.822;2023-11-21T03:19:18;5.35;;;2.30;;
66603;SDS011;53460;39.612;8.822;2023-11-21T03:21:44;4.25;;;2.40;;
66603;SDS011;53460;39.612;8.822;2023-11-21T03:24:09;3.63;;;1.85;;
66603;SDS011;53460;39.612;8.822;2023-11-21T03:26:35;4.70;;;1.45;;
66603;SDS011;53460;39.612;8.822;2023-11-21T03:29:02;2.42;;;1.45;;
66603;SDS011;53460;39.612;8.822;2023-11-21T03:31:28;2.90;;;1.77;;
66603;SDS011;53460;39.612;8.822;2023-11-21T03:33:53;2.67;;;1.70;;
66603;SDS011;53460;39.612;8.822;2023-11-21T03:36:19;3.40;;;1.50;;
66603;SDS011;53460;39.612;8.822;2023-11-21T03:38:45;4.93;;;1.50;;
66603;SDS011;53460;39.612;8.822;2023-11-21T03:41:11;3.33;;;1.50;;
66603;SDS011;53460;39.612;8.822;2023-11-21T03:43:37;2.03;;;1.65;;
66603;SDS011;53460;39.612;8.822;2023-11-21T03:46:03;5.57;;;1.35;;
66603;SDS011;53460;39.612;8.822;2023-11-21T03:48:29;3.13;;;1.17;;
66603;SDS011;53460;39.612;8.822;2023-11-21T03:50:55;2.53;;;1.40;;
66603;SDS011;53460;39.612;8.822;2023-11-21T03:53:20;2.42;;;1.50;;
66603;SDS011;53460;39.612;8.822;2023-11-21T03:55:46;1.75;;;1.25;;
66603;SDS011;53460;39.612;8.822;2023-11-21T03:58:12;3.08;;;1.50;;
66603;SDS011;53460;39.612;8.822;2023-11-21T04:00:37;3.00;;;1.48;;
66603;SDS011;53460;39.612;8.822;2023-11-21T04:03:03;2.65;;;1.40;;
66603;SDS011;53460;39.612;8.822;2023-11-21T04:05:30;1.75;;;1.17;;
66603;SDS011;53460;39.612;8.822;2023-11-21T04:07:56;2.70;;;1.42;;
66603;SDS011;53460;39.612;8.822;2023-11-21T04:10:21;3.00;;;1.50;;
66603;SDS011;53460;39.612;8.822;2023-11-21T04:12:47;4.93;;;1.38;;
66603;SDS011;53460;39.612;8.822;2023-11-21T04:15:13;0.95;;;0.90;;
66603;SDS011;53460;39.612;8.822;2023-11-21T04:17:39;4.85;;;1.45;;
66603;SDS011;53460;39.612;8.822;2023-11-21T04:20:06;2.42;;;1.45;;
66603;SDS011;53460;39.612;8.822;2023-11-21T04:22:36;5.38;;;1.70;;
66603;SDS011;53460;39.612;8.822;2023-11-21T04:25:06;4.55;;;1.13;;
66603;SDS011;53460;39.612;8.822;2023-11-21T04:27:39;2.92;;;1.20;;
66603;SDS011;53460;39.612;8.822;2023-11-21T04:30:06;2.00;;;1.33;;
66603;SDS011;53460;39.612;8.822;2023-11-21T04:32:32;3.85;;;1.33;;
66603;SDS011;53460;39.612;8.822;2023-11-21T04:34:58;3.10;;;1.40;;
66603;SDS011;53460;39.612;8.822;2023-11-21T04:37:24;3.15;;;1.35;;
66603;SDS011;53460;39.612;8.822;2023-11-21T04:39:50;3.42;;;1.65;;
66603;SDS011;53460;39.612;8.822;2023-11-21T04:42:15;2.40;;;1.30;;
66603;SDS011;53460;39.612;8.822;2023-11-21T04:44:41;3.80;;;1.20;;
66603;SDS011;53460;39.612;8.822;2023-11-21T04:47:06;1.33;;;1.02;;
66603;SDS011;53460;39.612;8.822;2023-11-21T04:49:32;3.38;;;1.80;;
66603;SDS011;53460;39.612;8.822;2023-11-21T04:51:58;2.50;;;1.30;;
66603;SDS011;53460;39.612;8.822;2023-11-21T04:54:24;3.15;;;1.50;;
66603;SDS011;53460;39.612;8.822;2023-11-21T04:56:50;1.98;;;1.35;;
66603;SDS011;53460;39.612;8.822;2023-11-21T04:59:15;3.35;;;1.73;;
66603;SDS011;53460;39.612;8.822;2023-11-21T05:01:41;2.10;;;1.48;;
66603;SDS011;53460;39.612;8.822;2023-11-21T05:04:06;4.50;;;1.45;;
66603;SDS011;53460;39.612;8.822;2023-11-21T05:06:34;2.10;;;1.35;;
66603;SDS011;53460;39.612;8.822;2023-11-21T05:09:00;1.88;;;1.55;;
66603;SDS011;53460;39.612;8.822;2023-11-21T05:11:26;2.42;;;1.70;;
66603;SDS011;53460;39.612;8.822;2023-11-21T05:13:52;3.45;;;1.80;;
66603;SDS011;53460;39.612;8.822;2023-11-21T05:16:19;4.47;;;1.70;;
66603;SDS011;53460;39.612;8.822;2023-11-21T05:18:45;7.05;;;1.77;;
66603;SDS011;53460;39.612;8.822;2023-11-21T05:21:10;5.00;;;1.48;;
66603;SDS011;53460;39.612;8.822;2023-11-21T05:23:36;3.45;;;1.73;;
66603;SDS011;53460;39.612;8.822;2023-11-21T05:26:02;3.22;;;1.60;;
66603;SDS011;53460;39.612;8.822;2023-11-21T05:28:28;5.97;;;2.00;;
66603;SDS011;53460;39.612;8.822;2023-11-21T05:30:54;2.05;;;1.42;;
66603;SDS011;53460;39.612;8.822;2023-11-21T05:33:20;4.32;;;1.77;;
66603;SDS011;53460;39.612;8.822;2023-11-21T05:35:46;1.73;;;1.40;;
66603;SDS011;53460;39.612;8.822;2023-11-21T05:38:14;3.28;;;1.80;;
66603;SDS011;53460;39.612;8.822;2023-11-21T05:40:39;2.80;;;1.50;;
66603;SDS011;53460;39.612;8.822;2023-11-21T05:43:05;3.08;;;2.05;;
66603;SDS011;53460;39.612;8.822;2023-11-21T05:45:31;5.70;;;1.70;;
66603;SDS011;53460;39.612;8.822;2023-11-21T05:47:58;3.13;;;1.80;;
66603;SDS011;53460;39.612;8.822;2023-11-21T05:50:24;1.88;;;1.63;;
66603;SDS011;53460;39.612;8.822;2023-11-21T05:52:49;4.85;;;1.92;;
66603;SDS011;53460;39.612;8.822;2023-11-21T05:55:15;4.45;;;1.85;;
66603;SDS011;53460;39.612;8.822;2023-11-21T05:57:42;5.43;;;2.00;;
66603;SDS011;53460;39.612;8.822;2023-11-21T06:00:09;2.30;;;1.67;;
66603;SDS011;53460;39.612;8.822;2023-11-21T06:02:39;2.00;;;1.80;;
66603;SDS011;53460;39.612;8.822;2023-11-21T06:05:06;1.98;;;1.77;;
66603;SDS011;53460;39.612;8.822;2023-11-21T06:07:32;2.75;;;2.10;;
66603;SDS011;53460;39.612;8.822;2023-11-21T06:09:58;3.45;;;1.90;;
66603;SDS011;53460;39.612;8.822;2023-11-21T06:12:24;3.97;;;2.13;;
66603;SDS011;53460;39.612;8.822;2023-11-21T06:14:49;3.25;;;2.03;;
66603;SDS011;53460;39.612;8.822;2023-11-21T06:17:15;2.80;;;1.88;;
66603;SDS011;53460;39.612;8.822;2023-11-21T06:19:40;4.25;;;2.08;;
66603;SDS011;53460;39.612;8.822;2023-11-21T06:22:07;4.28;;;2.08;;
66603;SDS011;53460;39.612;8.822;2023-11-21T06:24:33;3.50;;;2.10;;
66603;SDS011;53460;39.612;8.822;2023-11-21T06:26:58;3.88;;;2.92;;
66603;SDS011;53460;39.612;8.822;2023-11-21T06:29:24;6.07;;;2.90;;
66603;SDS011;53460;39.612;8.822;2023-11-21T06:31:50;7.65;;;2.60;;
66603;SDS011;53460;39.612;8.822;2023-11-21T06:34:15;5.63;;;2.42;;
66603;SDS011;53460;39.612;8.822;2023-11-21T06:36:41;5.63;;;2.08;;
66603;SDS011;53460;39.612;8.822;2023-11-21T06:39:06;5.38;;;2.40;;
66603;SDS011;53460;39.612;8.822;2023-11-21T06:41:33;5.28;;;2.88;;
66603;SDS011;53460;39.612;8.822;2023-11-21T06:43:59;5.50;;;2.75;;
66603;SDS011;53460;39.612;8.822;2023-11-21T06:46:24;3.60;;;2.30;;
66603;SDS011;53460;39.612;8.822;2023-11-21T06:48:50;6.38;;;2.28;;
66603;SDS011;53460;39.612;8.822;2023-11-21T06:51:16;3.65;;;2.20;;
66603;SDS011;53460;39.612;8.822;2023-11-21T06:53:42;4.75;;;2.63;;
66603;SDS011;53460;39.612;8.822;2023-11-21T06:56:17;5.85;;;2.40;;
66603;SDS011;53460;39.612;8.822;2023-11-21T06:58:44;7.10;;;2.58;;
66603;SDS011;53460;39.612;8.822;2023-11-21T07:01:11;5.03;;;2.22;;
66603;SDS011;53460;39.612;8.822;2023-11-21T07:03:37;4.03;;;2.40;;
66603;SDS011;53460;39.612;8.822;2023-11-21T07:06:03;4.40;;;2.30;;
66603;SDS011;53460;39.612;8.822;2023-11-21T07:08:29;4.72;;;2.10;;
66603;SDS011;53460;39.612;8.822;2023-11-21T07:10:54;2.97;;;1.65;;
66603;SDS011;53460;39.612;8.822;2023-11-21T07:13:20;8.35;;;1.90;;
66603;SDS011;53460;39.612;8.822;2023-11-21T07:15:46;5.50;;;1.60;;
66603;SDS011;53460;39.612;8.822;2023-11-21T07:18:13;4.30;;;1.92;;
66603;SDS011;53460;39.612;8.822;2023-11-21T07:20:39;5.22;;;1.70;;
66603;SDS011;53460;39.612;8.822;2023-11-21T07:23:04;2.22;;;1.70;;
66603;SDS011;53460;39.612;8.822;2023-11-21T07:25:31;5.57;;;1.70;;
66603;SDS011;53460;39.612;8.822;2023-11-21T07:27:58;5.53;;;1.70;;
66603;SDS011;53460;39.612;8.822;2023-11-21T07:30:25;2.05;;;1.65;;
66603;SDS011;53460;39.612;8.822;2023-11-21T07:32:50;5.32;;;2.20;;
66603;SDS011;53460;39.612;8.822;2023-11-21T07:35:16;4.72;;;1.70;;
66603;SDS011;53460;39.612;8.822;2023-11-21T07:37:41;5.88;;;1.98;;
66603;SDS011;53460;39.612;8.822;2023-11-21T07:40:08;3.15;;;1.60;;
66603;SDS011;53460;39.612;8.822;2023-11-21T07:42:34;4.32;;;1.80;;
66603;SDS011;53460;39.612;8.822;2023-11-21T07:45:00;4.90;;;1.70;;
66603;SDS011;53460;39.612;8.822;2023-11-21T07:47:25;3.97;;;1.95;;
66603;SDS011;53460;39.612;8.822;2023-11-21T07:49:52;3.25;;;1.90;;
66603;SDS011;53460;39.612;8.822;2023-11-21T07:52:21;5.57;;;2.13;;
66603;SDS011;53460;39.612;8.822;2023-11-21T07:54:47;4.40;;;1.67;;
66603;SDS011;53460;39.612;8.822;2023-11-21T07:57:13;5.65;;;1.92;;
66603;SDS011;53460;39.612;8.822;2023-11-21T07:59:41;6.10;;;2.30;;
66603;SDS011;53460;39.612;8.822;2023-11-21T08:02:07;4.57;;;1.73;;
66603;SDS011;53460;39.612;8.822;2023-11-21T08:04:33;7.53;;;1.60;;
66603;SDS011;53460;39.612;8.822;2023-11-21T08:07:00;4.32;;;1.80;;
66603;SDS011;53460;39.612;8.822;2023-11-21T08:09:27;5.68;;;1.88;;
66603;SDS011;53460;39.612;8.822;2023-11-21T08:11:52;6.25;;;2.10;;
66603;SDS011;53460;39.612;8.822;2023-11-21T08:14:18;6.47;;;1.83;;
66603;SDS011;53460;39.612;8.822;2023-11-21T08:16:45;6.10;;;1.80;;
66603;SDS011;53460;39.612;8.822;2023-11-21T08:19:11;6.80;;;2.10;;
66603;SDS011;53460;39.612;8.822;2023-11-21T08:21:36;4.47;;;1.85;;
66603;SDS011;53460;39.612;8.822;2023-11-21T08:24:04;9.20;;;1.95;;
66603;SDS011;53460;39.612;8.822;2023-11-21T08:26:31;5.75;;;1.92;;
66603;SDS011;53460;39.612;8.822;2023-11-21T08:28:57;12.35;;;2.17;;
66603;SDS011;53460;39.612;8.822;2023-11-21T08:31:25;7.13;;;2.80;;
66603;SDS011;53460;39.612;8.822;2023-11-21T08:33:51;6.35;;;2.03;;
66603;SDS011;53460;39.612;8.822;2023-11-21T08:36:20;8.90;;;2.20;;
66603;SDS011;53460;39.612;8.822;2023-11-21T08:38:46;6.88;;;2.10;;
66603;SDS011;53460;39.612;8.822;2023-11-21T08:41:11;5.50;;;2.25;;
66603;SDS011;53460;39.612;8.822;2023-11-21T08:43:37;7.10;;;2.08;;
66603;SDS011;53460;39.612;8.822;2023-11-21T08:46:05;6.65;;;1.90;;
66603;SDS011;53460;39.612;8.822;2023-11-21T08:48:31;8.20;;;2.20;;
66603;SDS011;53460;39.612;8.822;2023-11-21T08:50:57;6.95;;;1.80;;
66603;SDS011;53460;39.612;8.822;2023-11-21T08:53:22;5.53;;;1.70;;
66603;SDS011;53460;39.612;8.822;2023-11-21T08:55:48;9.75;;;1.98;;
66603;SDS011;53460;39.612;8.822;2023-11-21T08:58:15;6.57;;;2.30;;
66603;SDS011;53460;39.612;8.822;2023-11-21T09:00:41;10.90;;;2.60;;
66603;SDS011;53460;39.612;8.822;2023-11-21T09:03:07;6.50;;;1.90;;
66603;SDS011;53460;39.612;8.822;2023-11-21T09:05:34;6.07;;;2.55;;
66603;SDS011;53460;39.612;8.822;2023-11-21T09:08:02;7.47;;;2.83;;
66603;SDS011;53460;39.612;8.822;2023-11-21T09:10:29;8.38;;;3.17;;
66603;SDS011;53460;39.612;8.822;2023-11-21T09:12:55;12.05;;;2.83;;
66603;SDS011;53460;39.612;8.822;2023-11-21T09:15:20;6.53;;;2.30;;
66603;SDS011;53460;39.612;8.822;2023-11-21T09:17:46;7.07;;;2.70;;
66603;SDS011;53460;39.612;8.822;2023-11-21T09:20:12;9.27;;;2.97;;
66603;SDS011;53460;39.612;8.822;2023-11-21T09:22:40;10.48;;;3.10;;
66603;SDS011;53460;39.612;8.822;2023-11-21T09:25:06;6.38;;;3.00;;
66603;SDS011;53460;39.612;8.822;2023-11-21T09:27:33;10.10;;;3.85;;
66603;SDS011;53460;39.612;8.822;2023-11-21T09:30:01;9.65;;;3.38;;
66603;SDS011;53460;39.612;8.822;2023-11-21T09:32:26;8.75;;;3.42;;
66603;SDS011;53460;39.612;8.822;2023-11-21T09:34:52;10.05;;;3.72;;
66603;SDS011;53460;39.612;8.822;2023-11-21T09:37:20;8.88;;;3.67;;
66603;SDS011;53460;39.612;8.822;2023-11-21T09:39:46;8.82;;;2.90;;
66603;SDS011;53460;39.612;8.822;2023-11-21T09:42:13;6.95;;;3.15;;
66603;SDS011;53460;39.612;8.822;2023-11-21T09:44:51;8.07;;;2.90;;
66603;SDS011;53460;39.612;8.822;2023-11-21T09:47:24;9.23;;;3.40;;
66603;SDS011;53460;39.612;8.822;2023-11-21T09:49:50;8.00;;;2.55;;
66603;SDS011;53460;39.612;8.822;2023-11-21T09:52:20;7.93;;;2.63;;
66603;SDS011;53460;39.612;8.822;2023-11-21T09:54:55;13.27;;;9.05;;
66603;SDS011;53460;39.612;8.822;2023-11-21T09:59:52;7.93;;;2.38;;
66603;SDS011;53460;39.612;8.822;2023-11-21T10:02:24;13.27;;;4.55;;
66603;SDS011;53460;39.612;8.822;2023-11-21T10:04:53;11.70;;;3.08;;
66603;SDS011;53460;39.612;8.822;2023-11-21T10:07:20;20.35;;;10.38;;
66603;SDS011;53460;39.612;8.822;2023-11-21T10:09:46;13.30;;;3.63;;
66603;SDS011;53460;39.612;8.822;2023-11-21T10:12:14;9.55;;;4.78;;
66603;SDS011;53460;39.612;8.822;2023-11-21T10:14:41;7.60;;;2.65;;
66603;SDS011;53460;39.612;8.822;2023-11-21T10:17:12;8.25;;;2.88;;
66603;SDS011;53460;39.612;8.822;2023-11-21T10:19:39;7.88;;;3.42;;
66603;SDS011;53460;39.612;8.822;2023-11-21T10:22:05;11.82;;;4.10;;
66603;SDS011;53460;39.612;8.822;2023-11-21T10:24:35;11.77;;;3.97;;
66603;SDS011;53460;39.612;8.822;2023-11-21T10:27:02;10.77;;;5.25;;
66603;SDS011;53460;39.612;8.822;2023-11-21T10:29:29;11.07;;;4.40;;
66603;SDS011;53460;39.612;8.822;2023-11-21T10:31:55;12.00;;;4.20;;
66603;SDS011;53460;39.612;8.822;2023-11-21T10:34:23;14.32;;;4.88;;
66603;SDS011;53460;39.612;8.822;2023-11-21T10:36:49;11.35;;;4.30;;
66603;SDS011;53460;39.612;8.822;2023-11-21T10:39:19;8.93;;;2.60;;
66603;SDS011;53460;39.612;8.822;2023-11-21T10:41:49;8.52;;;2.28;;
66603;SDS011;53460;39.612;8.822;2023-11-21T10:44:16;7.55;;;2.45;;
66603;SDS011;53460;39.612;8.822;2023-11-21T10:46:52;9.65;;;2.45;;
66603;SDS011;53460;39.612;8.822;2023-11-21T10:49:21;10.00;;;2.30;;
66603;SDS011;53460;39.612;8.822;2023-11-21T10:51:50;7.05;;;2.22;;
66603;SDS011;53460;39.612;8.822;2023-11-21T10:54:21;16.13;;;2.20;;
66603;SDS011;53460;39.612;8.822;2023-11-21T10:56:50;15.93;;;3.25;;
66603;SDS011;53460;39.612;8.822;2023-11-21T10:59:18;9.20;;;3.20;;
66603;SDS011;53460;39.612;8.822;2023-11-21T11:01:46;13.98;;;3.63;;
66603;SDS011;53460;39.612;8.822;2023-11-21T11:04:15;11.90;;;2.67;;
66603;SDS011;53460;39.612;8.822;2023-11-21T11:06:45;11.40;;;2.78;;
66603;SDS011;53460;39.612;8.822;2023-11-21T11:09:19;12.82;;;2.83;;
66603;SDS011;53460;39.612;8.822;2023-11-21T11:11:46;12.57;;;3.05;;
66603;SDS011;53460;39.612;8.822;2023-11-21T11:14:12;11.50;;;2.90;;
66603;SDS011;53460;39.612;8.822;2023-11-21T11:16:39;10.95;;;3.05;;
66603;SDS011;53460;39.612;8.822;2023-11-21T11:19:09;9.10;;;2.67;;
66603;SDS011;53460;39.612;8.822;2023-11-21T11:29:59;9.77;;;2.70;;
66603;SDS011;53460;39.612;8.822;2023-11-21T11:35:13;11.77;;;2.92;;
66603;SDS011;53460;39.612;8.822;2023-11-21T11:37:56;10.98;;;2.80;;
66603;SDS011;53460;39.612;8.822;2023-11-21T11:40:22;11.45;;;2.90;;
66603;SDS011;53460;39.612;8.822;2023-11-21T11:42:58;7.25;;;2.28;;
66603;SDS011;53460;39.612;8.822;2023-11-21T11:45:36;11.15;;;2.63;;
66603;SDS011;53460;39.612;8.822;2023-11-21T11:48:06;10.63;;;2.53;;
66603;SDS011;53460;39.612;8.822;2023-11-21T11:50:32;10.20;;;2.40;;
66603;SDS011;53460;39.612;8.822;2023-11-21T11:53:14;8.60;;;1.85;;
66603;SDS011;53460;39.612;8.822;2023-11-21T11:55:40;10.27;;;2.30;;
66603;SDS011;53460;39.612;8.822;2023-11-21T11:58:06;9.35;;;2.08;;
66603;SDS011;53460;39.612;8.822;2023-11-21T12:03:00;9.65;;;2.28;;
66603;SDS011;53460;39.612;8.822;2023-11-21T12:05:28;9.60;;;2.30;;
66603;SDS011;53460;39.612;8.822;2023-11-21T12:08:02;10.25;;;2.92;;
66603;SDS011;53460;39.612;8.822;2023-11-21T12:10:29;7.85;;;2.28;;
66603;SDS011;53460;39.612;8.822;2023-11-21T12:12:57;7.15;;;2.45;;
66603;SDS011;53460;39.612;8.822;2023-11-21T12:15:24;11.93;;;3.22;;
66603;SDS011;53460;39.612;8.822;2023-11-21T12:17:51;7.43;;;2.38;;
66603;SDS011;53460;39.612;8.822;2023-11-21T12:20:21;12.00;;;2.13;;
66603;SDS011;53460;39.612;8.822;2023-11-21T12:22:49;9.57;;;1.95;;
66603;SDS011;53460;39.612;8.822;2023-11-21T12:25:20;9.68;;;2.10;;
66603;SDS011;53460;39.612;8.822;2023-11-21T12:27:52;5.38;;;1.90;;
66603;SDS011;53460;39.612;8.822;2023-11-21T12:30:18;6.05;;;1.80;;
66603;SDS011;53460;39.612;8.822;2023-11-21T12:32:52;10.85;;;2.80;;
66603;SDS011;53460;39.612;8.822;2023-11-21T12:35:19;8.57;;;2.53;;
66603;SDS011;53460;39.612;8.822;2023-11-21T12:37:46;9.77;;;3.30;;
66603;SDS011;53460;39.612;8.822;2023-11-21T12:40:12;6.85;;;2.10;;
66603;SDS011;53460;39.612;8.822;2023-11-21T12:42:47;11.07;;;2.90;;
66603;SDS011;53460;39.612;8.822;2023-11-21T12:45:22;7.65;;;1.92;;
66603;SDS011;53460;39.612;8.822;2023-11-21T12:47:51;7.43;;;2.30;;
66603;SDS011;53460;39.612;8.822;2023-11-21T12:50:38;6.88;;;2.28;;
66603;SDS011;53460;39.612;8.822;2023-11-21T12:53:04;7.10;;;2.50;;
66603;SDS011;53460;39.612;8.822;2023-11-21T12:55:34;8.30;;;2.88;;
66603;SDS011;53460;39.612;8.822;2023-11-21T12:58:04;10.52;;;3.03;;
66603;SDS011;53460;39.612;8.822;2023-11-21T13:00:47;10.32;;;2.25;;
66603;SDS011;53460;39.612;8.822;2023-11-21T13:03:15;10.38;;;2.47;;
66603;SDS011;53460;39.612;8.822;2023-11-21T13:05:43;8.43;;;2.30;;
66603;SDS011;53460;39.612;8.822;2023-11-21T13:08:11;10.35;;;2.67;;
66603;SDS011;53460;39.612;8.822;2023-11-21T13:10:42;7.25;;;2.13;;
66603;SDS011;53460;39.612;8.822;2023-11-21T13:13:12;6.65;;;1.73;;
66603;SDS011;53460;39.612;8.822;2023-11-21T13:15:51;6.22;;;1.83;;
66603;SDS011;53460;39.612;8.822;2023-11-21T13:18:21;11.75;;;2.70;;
66603;SDS011;53460;39.612;8.822;2023-11-21T13:20:48;4.47;;;1.75;;
66603;SDS011;53460;39.612;8.822;2023-11-21T13:23:15;8.60;;;2.55;;
66603;SDS011;53460;39.612;8.822;2023-11-21T13:25:44;10.63;;;2.13;;
66603;SDS011;53460;39.612;8.822;2023-11-21T13:28:11;9.50;;;2.65;;
66603;SDS011;53460;39.612;8.822;2023-11-21T13:30:38;6.43;;;2.10;;
66603;SDS011;53460;39.612;8.822;2023-11-21T13:33:06;6.53;;;2.10;;
66603;SDS011;53460;39.612;8.822;2023-11-21T13:35:33;5.88;;;1.80;;
66603;SDS011;53460;39.612;8.822;2023-11-21T13:38:05;8.35;;;2.42;;
66603;SDS011;53460;39.612;8.822;2023-11-21T13:40:47;7.50;;;3.20;;
66603;SDS011;53460;39.612;8.822;2023-11-21T13:43:18;6.10;;;1.83;;
66603;SDS011;53460;39.612;8.822;2023-11-21T13:45:45;9.35;;;2.83;;
66603;SDS011;53460;39.612;8.822;2023-11-21T13:48:12;6.28;;;1.45;;
66603;SDS011;53460;39.612;8.822;2023-11-21T13:50:39;7.95;;;1.65;;
66603;SDS011;53460;39.612;8.822;2023-11-21T13:53:13;7.95;;;2.00;;
66603;SDS011;53460;39.612;8.822;2023-11-21T13:55:48;6.32;;;1.50;;
66603;SDS011;53460;39.612;8.822;2023-11-21T13:58:21;6.60;;;1.80;;
66603;SDS011;53460;39.612;8.822;2023-11-21T14:01:00;6.25;;;1.35;;
66603;SDS011;53460;39.612;8.822;2023-11-21T14:03:26;4.57;;;1.25;;
66603;SDS011;53460;39.612;8.822;2023-11-21T14:06:05;4.22;;;1.55;;
66603;SDS011;53460;39.612;8.822;2023-11-21T14:08:40;5.72;;;1.10;;
66603;SDS011;53460;39.612;8.822;2023-11-21T14:11:07;8.07;;;1.75;;
66603;SDS011;53460;39.612;8.822;2023-11-21T14:13:33;5.88;;;1.35;;
66603;SDS011;53460;39.612;8.822;2023-11-21T14:15:59;5.40;;;1.88;;
66603;SDS011;53460;39.612;8.822;2023-11-21T14:18:26;7.25;;;2.10;;
66603;SDS011;53460;39.612;8.822;2023-11-21T14:20:57;7.25;;;2.05;;
66603;SDS011;53460;39.612;8.822;2023-11-21T14:23:22;5.00;;;1.23;;
66603;SDS011;53460;39.612;8.822;2023-11-21T14:25:49;5.05;;;3.05;;
66603;SDS011;53460;39.612;8.822;2023-11-21T14:28:16;9.38;;;3.28;;
66603;SDS011;53460;39.612;8.822;2023-11-21T14:30:44;6.43;;;2.50;;
66603;SDS011;53460;39.612;8.822;2023-11-21T14:33:12;3.38;;;1.45;;
66603;SDS011;53460;39.612;8.822;2023-11-21T14:35:39;5.00;;;1.08;;
66603;SDS011;53460;39.612;8.822;2023-11-21T14:38:05;3.63;;;1.20;;
66603;SDS011;53460;39.612;8.822;2023-11-21T14:40:31;6.68;;;1.55;;
66603;SDS011;53460;39.612;8.822;2023-11-21T14:43:03;5.30;;;1.15;;
66603;SDS011;53460;39.612;8.822;2023-11-21T14:45:33;4.97;;;1.65;;
66603;SDS011;53460;39.612;8.822;2023-11-21T14:48:00;5.57;;;1.60;;
66603;SDS011;53460;39.612;8.822;2023-11-21T14:50:41;5.60;;;1.75;;
66603;SDS011;53460;39.612;8.822;2023-11-21T14:53:14;4.70;;;1.48;;
66603;SDS011;53460;39.612;8.822;2023-11-21T14:55:40;5.72;;;1.30;;
66603;SDS011;53460;39.612;8.822;2023-11-21T14:58:16;7.95;;;1.42;;
66603;SDS011;53460;39.612;8.822;2023-11-21T15:00:52;5.57;;;1.40;;
66603;SDS011;53460;39.612;8.822;2023-11-21T15:05:56;9.88;;;2.15;;